Cdry Blue — ICOB — position and weather

sailwx.info

Track history (hours):
 
Tides and Currents Weather Stations Pressure Air Temp Water Temp Dewpoint Dewpoint Depression Visibility Wind Speed Wind Dir Waves Ship Positions

Cdry Blue

Last reported at 2014-Nov-24 03:33 UTC. Time now 2014-Nov-24 15:07 UTC.
Position N 41°21' E 002°10'.

Length 108 m; draft 6.3 m.

Type: Cargo ship. MMSI: 247289300.

Date/timePositionNaut miles runAvg speedWind from/ knotsBaromVisibWave heightAir tempDewpointWater temp
2014-Nov-24 03:33N 41°21' E 002°10'7 7.4
2014-Nov-24 02:33N 41°14' E 002°13'1211.9
2014-Nov-24 01:33N 41°04' E 002°23'1212.3
2014-Nov-24 00:33N 40°55' E 002°34'1212.3
2014-Nov-23 23:33N 40°46' E 002°45'1212.2
2014-Nov-23 22:33N 40°38' E 002°56'1212.3
2014-Nov-23 21:33N 40°28' E 003°07'3712.2
2014-Nov-23 18:33N 40°01' E 003°38'1212.5
2014-Nov-23 17:33N 39°51' E 003°49'5012.3
2014-Nov-23 13:29N 39°31' E 004°48'2512.6
2014-Nov-23 11:29N 39°18' E 005°16'1412.5
2014-Nov-23 10:22N 39°11' E 005°31'1612.6
2014-Nov-23 09:06N 39°02' E 005°49'2011.7
2014-Nov-23 07:25N 38°53' E 006°11'11312.3
2014-Nov-22 22:14N 37°55' E 008°15'3712.5
2014-Nov-22 19:13N 37°37' E 008°56'911.6
2014-Nov-22 18:29N 37°34' E 009°07'1212.8
2014-Nov-22 17:30N 37°30' E 009°22'1111.7
2014-Nov-22 16:33N 37°27' E 009°35'1312.3
2014-Nov-22 15:30N 37°23' E 009°51'7 0.3
2014-Nov-21 14:22N 37°17' E 009°54'17810.6
2014-Nov-20 21:34N 37°03' E 013°36'1111.4
2014-Nov-20 20:34N 36°58' E 013°49'1111.3
2014-Nov-20 19:33N 36°53' E 014°02'1111.5
2014-Nov-20 18:34N 36°48' E 014°15'1111.1
2014-Nov-20 17:33N 36°43' E 014°28'  
2014-Nov-15 13:33N 38°09' E 022°48'  
Track history (hours):
 
Tides and Currents Weather Stations Pressure Air Temp Water Temp Dewpoint Dewpoint Depression Visibility Wind Speed Wind Dir Waves Ship Positions

Cdry Blue

Last reported at 2014-Nov-24 03:33 UTC. Time now 2014-Nov-24 15:07 UTC.
Position N 41°21' E 002°10'.

Length 108 m; draft 6.3 m.

Type: Cargo ship. MMSI: 247289300.

Date/timePositionNaut miles runAvg speedWind from/ knotsBaromVisibWave heightAir tempDewpointWater temp
2014-Nov-24 03:33N 41°21' E 002°10'7 7.4
2014-Nov-24 02:33N 41°14' E 002°13'1211.9
2014-Nov-24 01:33N 41°04' E 002°23'1212.3
2014-Nov-24 00:33N 40°55' E 002°34'1212.3
2014-Nov-23 23:33N 40°46' E 002°45'1212.2
2014-Nov-23 22:33N 40°38' E 002°56'1212.3
2014-Nov-23 21:33N 40°28' E 003°07'3712.2
2014-Nov-23 18:33N 40°01' E 003°38'1212.5
2014-Nov-23 17:33N 39°51' E 003°49'5012.3
2014-Nov-23 13:29N 39°31' E 004°48'2512.6
2014-Nov-23 11:29N 39°18' E 005°16'1412.5
2014-Nov-23 10:22N 39°11' E 005°31'1612.6
2014-Nov-23 09:06N 39°02' E 005°49'2011.7
2014-Nov-23 07:25N 38°53' E 006°11'11312.3
2014-Nov-22 22:14N 37°55' E 008°15'3712.5
2014-Nov-22 19:13N 37°37' E 008°56'911.6
2014-Nov-22 18:29N 37°34' E 009°07'1212.8
2014-Nov-22 17:30N 37°30' E 009°22'1111.7
2014-Nov-22 16:33N 37°27' E 009°35'1312.3
2014-Nov-22 15:30N 37°23' E 009°51'7 0.3
2014-Nov-21 14:22N 37°17' E 009°54'17810.6
2014-Nov-20 21:34N 37°03' E 013°36'1111.4
2014-Nov-20 20:34N 36°58' E 013°49'1111.3
2014-Nov-20 19:33N 36°53' E 014°02'1111.5
2014-Nov-20 18:34N 36°48' E 014°15'1111.1
2014-Nov-20 17:33N 36°43' E 014°28'  
2014-Nov-15 13:33N 38°09' E 022°48'  

Dump ship's entire track history